createdAt,value
2023-04-15T00:01:00.188Z,9.48
2023-04-15T00:03:29.855Z,11.82
2023-04-15T00:05:58.778Z,11.07
2023-04-15T00:08:26.473Z,11.80
2023-04-15T00:10:54.164Z,12.95
2023-04-15T00:13:21.744Z,18.45
2023-04-15T00:15:49.349Z,10.55
2023-04-15T00:18:16.961Z,10.48
2023-04-15T00:20:45.990Z,12.18
2023-04-15T00:23:13.589Z,15.35
2023-04-15T00:25:41.699Z,14.93
2023-04-15T00:28:09.849Z,14.38
2023-04-15T00:30:37.577Z,15.57
2023-04-15T00:33:05.208Z,13.45
2023-04-15T00:35:33.584Z,11.52
2023-04-15T00:38:02.535Z,12.95
2023-04-15T00:40:30.177Z,12.70
2023-04-15T00:42:57.858Z,12.93
2023-04-15T00:45:28.062Z,10.25
2023-04-15T00:47:56.663Z,11.48
2023-04-15T00:50:24.673Z,11.82
2023-04-15T00:52:52.293Z,12.48
2023-04-15T00:55:21.471Z,16.17
2023-04-15T00:57:49.524Z,11.88
2023-04-15T01:00:17.208Z,14.00
2023-04-15T01:02:47.259Z,11.32
2023-04-15T01:05:17.217Z,17.13
2023-04-15T01:07:44.821Z,13.65
2023-04-15T01:10:13.046Z,14.88
2023-04-15T01:12:42.422Z,13.85
2023-04-15T01:15:11.331Z,23.52
2023-04-15T01:17:40.409Z,20.95
2023-04-15T01:20:10.409Z,15.45
2023-04-15T01:22:39.435Z,16.20
2023-04-15T01:25:13.040Z,19.42
2023-04-15T01:27:43.233Z,13.90
2023-04-15T01:30:12.070Z,15.90
2023-04-15T01:32:39.803Z,15.48
2023-04-15T01:35:08.703Z,17.77
2023-04-15T01:37:36.896Z,14.40
2023-04-15T01:40:04.919Z,19.60
2023-04-15T01:42:32.707Z,14.20
2023-04-15T01:45:01.942Z,16.38
2023-04-15T01:47:29.601Z,17.05
2023-04-15T01:49:57.267Z,12.63
2023-04-15T01:52:25.202Z,12.32
2023-04-15T01:54:52.816Z,15.27
2023-04-15T01:57:20.602Z,14.77
2023-04-15T01:59:48.208Z,14.98
2023-04-15T02:02:17.464Z,22.52
2023-04-15T02:04:45.476Z,18.70
2023-04-15T02:07:13.126Z,16.25
2023-04-15T02:09:40.714Z,13.05
2023-04-15T02:12:09.333Z,20.45
2023-04-15T02:14:37.166Z,18.50
2023-04-15T02:17:07.374Z,15.68
2023-04-15T02:19:36.631Z,13.90
2023-04-15T02:22:04.504Z,17.70
2023-04-15T02:24:32.182Z,14.55
2023-04-15T02:26:59.972Z,14.80
2023-04-15T02:29:27.636Z,18.88
2023-04-15T02:31:55.559Z,18.90
2023-04-15T02:34:23.166Z,19.52
2023-04-15T02:36:54.924Z,21.98
2023-04-15T02:39:22.850Z,20.63
2023-04-15T02:41:52.475Z,16.17
2023-04-15T02:44:20.493Z,19.90
2023-04-15T02:46:52.467Z,20.98
2023-04-15T02:49:20.090Z,21.92
2023-04-15T02:51:49.490Z,13.40
2023-04-15T02:54:18.510Z,22.80
2023-04-15T02:56:46.370Z,15.70
2023-04-15T02:59:14.207Z,15.02
2023-04-15T03:01:41.872Z,19.13
2023-04-15T03:04:09.888Z,21.38
2023-04-15T03:06:37.760Z,17.23
2023-04-15T03:09:05.510Z,20.30
2023-04-15T03:11:40.571Z,17.40
2023-04-15T03:14:09.938Z,15.18
2023-04-15T03:16:41.621Z,21.17
2023-04-15T03:19:09.367Z,16.42
2023-04-15T03:21:38.371Z,21.33
2023-04-15T03:24:06.769Z,23.50
2023-04-15T03:26:34.484Z,18.25
2023-04-15T03:29:08.528Z,21.17
2023-04-15T03:31:36.491Z,22.52
2023-04-15T03:34:04.122Z,18.83
2023-04-15T03:36:33.049Z,18.40
2023-04-15T03:39:02.178Z,20.17
2023-04-15T03:41:30.116Z,16.45
2023-04-15T03:43:58.060Z,18.85
2023-04-15T03:46:27.084Z,22.17
2023-04-15T03:48:54.718Z,22.17
2023-04-15T03:51:22.429Z,20.60
2023-04-15T03:53:50.026Z,16.73
2023-04-15T03:56:17.616Z,24.42
2023-04-15T03:58:45.284Z,18.70
2023-04-15T04:01:12.877Z,16.10
2023-04-15T04:03:42.097Z,25.75
2023-04-15T04:06:10.392Z,22.55
2023-04-15T04:08:37.978Z,19.80
2023-04-15T04:11:06.530Z,17.92
2023-04-15T04:13:34.124Z,21.25
2023-04-15T04:16:01.927Z,20.30
2023-04-15T04:18:29.696Z,17.30
2023-04-15T04:20:58.983Z,22.52
2023-04-15T04:23:26.649Z,19.83
2023-04-15T04:25:54.427Z,17.00
2023-04-15T04:28:22.177Z,22.80
2023-04-15T04:30:49.875Z,16.23
2023-04-15T04:33:17.517Z,19.85
2023-04-15T04:35:45.293Z,20.00
2023-04-15T04:38:14.251Z,28.15
2023-04-15T04:40:42.119Z,18.35
2023-04-15T04:43:10.242Z,20.48
2023-04-15T04:45:37.890Z,20.98
2023-04-15T04:48:08.576Z,20.80
2023-04-15T04:50:36.549Z,18.40
2023-04-15T04:53:04.139Z,23.30
2023-04-15T04:55:33.109Z,20.90
2023-04-15T04:58:00.747Z,26.55
2023-04-15T05:00:28.354Z,18.27
2023-04-15T05:02:56.457Z,21.20
2023-04-15T05:05:24.183Z,28.45
2023-04-15T05:07:51.851Z,24.45
2023-04-15T05:10:19.487Z,20.67
2023-04-15T05:12:48.438Z,22.35
2023-04-15T05:15:16.233Z,21.30
2023-04-15T05:17:44.571Z,23.27
2023-04-15T05:20:13.749Z,21.00
2023-04-15T05:22:41.395Z,21.63
2023-04-15T05:25:09.660Z,18.13
2023-04-15T05:27:37.252Z,18.65
2023-04-15T05:30:07.507Z,20.13
2023-04-15T05:32:35.214Z,22.40
2023-04-15T05:35:03.112Z,25.25
2023-04-15T05:37:30.781Z,20.38
2023-04-15T05:39:58.385Z,22.75
2023-04-15T05:42:26.245Z,21.25
2023-04-15T05:44:53.842Z,26.88
2023-04-15T05:47:22.858Z,22.52
2023-04-15T05:49:50.489Z,31.98
2023-04-15T05:52:18.120Z,22.80
2023-04-15T05:54:45.752Z,26.35
2023-04-15T05:57:13.399Z,29.17
2023-04-15T05:59:42.110Z,29.23
2023-04-15T06:02:10.850Z,28.02
2023-04-15T06:04:40.369Z,26.23
2023-04-15T06:07:08.202Z,23.73
2023-04-15T06:09:36.157Z,20.48
2023-04-15T06:12:03.789Z,24.80
2023-04-15T06:14:31.397Z,18.60
2023-04-15T06:16:59.105Z,18.55
2023-04-15T06:19:26.684Z,21.92
2023-04-15T06:21:55.642Z,20.95
2023-04-15T06:24:23.445Z,23.27
2023-04-15T06:26:51.196Z,18.98
2023-04-15T06:29:18.821Z,19.17
2023-04-15T06:31:48.424Z,18.00
2023-04-15T06:34:16.175Z,18.02
2023-04-15T06:36:43.875Z,21.70
2023-04-15T06:39:12.825Z,17.42
2023-04-15T06:41:40.652Z,16.85
2023-04-15T06:44:08.332Z,18.83
2023-04-15T06:46:35.929Z,16.30
2023-04-15T06:49:03.776Z,19.40
2023-04-15T06:51:31.583Z,17.42
2023-04-15T06:53:59.274Z,21.02
2023-04-15T06:56:28.357Z,17.15
2023-04-15T06:58:56.101Z,18.00
2023-04-15T07:01:23.819Z,16.50
2023-04-15T07:03:51.648Z,20.05
2023-04-15T07:06:19.854Z,19.58
2023-04-15T07:08:47.442Z,18.42
2023-04-15T07:11:15.142Z,14.88
2023-04-15T07:13:44.093Z,21.02
2023-04-15T07:16:11.735Z,20.90
2023-04-15T07:18:39.383Z,26.45
2023-04-15T07:21:07.022Z,21.17
2023-04-15T07:23:34.649Z,16.25
2023-04-15T07:26:02.410Z,20.98
2023-04-15T07:28:30.002Z,16.30
2023-04-15T07:30:59.026Z,16.75
2023-04-15T07:33:26.748Z,19.90
2023-04-15T07:35:54.327Z,17.00
2023-04-15T07:38:21.957Z,17.38
2023-04-15T07:40:49.641Z,18.08
2023-04-15T07:43:17.357Z,20.50
2023-04-15T07:45:45.052Z,16.73
2023-04-15T07:48:14.063Z,19.27
2023-04-15T07:50:41.746Z,16.25
2023-04-15T07:53:09.744Z,15.90
2023-04-15T07:55:37.394Z,17.55
2023-04-15T07:58:05.075Z,16.48
2023-04-15T08:00:34.053Z,17.40
2023-04-15T08:03:02.152Z,16.05
2023-04-15T08:05:31.365Z,16.03
2023-04-15T08:07:59.373Z,14.03
2023-04-15T08:10:27.261Z,13.23
2023-04-15T08:12:56.359Z,13.57
2023-04-15T08:15:24.085Z,13.73
2023-04-15T08:17:51.791Z,12.20
2023-04-15T08:20:19.854Z,13.03
2023-04-15T08:22:51.817Z,9.80
2023-04-15T08:25:19.908Z,10.27
2023-04-15T08:27:47.700Z,7.97
2023-04-15T08:30:15.595Z,8.57
2023-04-15T08:32:43.362Z,10.13
2023-04-15T08:35:11.029Z,7.27
2023-04-15T08:37:38.645Z,8.90
2023-04-15T08:40:09.794Z,7.07
2023-04-15T08:42:43.014Z,8.53
2023-04-15T08:45:12.078Z,8.40
2023-04-15T08:47:40.601Z,7.37
2023-04-15T08:50:11.736Z,6.90
2023-04-15T08:52:40.728Z,7.87
2023-04-15T08:55:11.561Z,8.87
2023-04-15T08:57:39.782Z,7.70
2023-04-15T09:00:09.362Z,9.40
2023-04-15T09:02:37.499Z,7.30
2023-04-15T09:05:06.965Z,7.30
2023-04-15T09:07:35.345Z,9.10
2023-04-15T09:10:04.312Z,10.67
2023-04-15T09:12:35.890Z,7.60
2023-04-15T09:15:03.707Z,7.40
2023-04-15T09:17:34.556Z,7.90
2023-04-15T09:20:13.257Z,7.67
2023-04-15T09:22:42.273Z,6.90
2023-04-15T09:25:28.600Z,5.30
2023-04-15T09:27:59.106Z,5.20
2023-04-15T09:30:26.851Z,5.40
2023-04-15T09:32:55.907Z,5.07
2023-04-15T09:35:25.607Z,5.03
2023-04-15T09:37:53.889Z,5.40
2023-04-15T09:40:35.792Z,5.30
2023-04-15T09:43:05.436Z,4.50
2023-04-15T09:45:33.885Z,6.20
2023-04-15T09:48:16.783Z,5.13
2023-04-15T09:50:44.897Z,8.33
2023-04-15T09:53:16.464Z,6.80
2023-04-15T09:55:46.556Z,5.50
2023-04-15T09:58:21.195Z,6.70
2023-04-15T10:00:50.348Z,6.17
2023-04-15T10:03:21.803Z,6.20
2023-04-15T10:05:51.424Z,7.00
2023-04-15T10:08:20.623Z,6.87
2023-04-15T10:10:49.279Z,6.73
2023-04-15T10:13:20.570Z,7.57
2023-04-15T10:15:53.349Z,9.27
2023-04-15T10:18:22.563Z,7.10
2023-04-15T10:20:51.160Z,8.30
2023-04-15T10:23:20.467Z,6.97
2023-04-15T10:25:48.287Z,7.77
2023-04-15T10:28:17.344Z,8.27
2023-04-15T10:30:47.901Z,7.63
2023-04-15T10:33:17.119Z,6.60
2023-04-15T10:35:46.302Z,9.63
2023-04-15T10:38:32.995Z,7.80
2023-04-15T10:41:14.214Z,8.17
2023-04-15T10:43:47.588Z,7.87
2023-04-15T10:46:19.608Z,6.50
2023-04-15T10:48:52.335Z,7.80
2023-04-15T10:51:29.320Z,4.73
2023-04-15T10:54:00.948Z,5.03
2023-04-15T10:56:30.051Z,5.47
2023-04-15T10:59:00.621Z,7.30
2023-04-15T11:01:54.104Z,6.63
2023-04-15T11:04:53.584Z,6.90
2023-04-15T11:07:43.387Z,5.67
2023-04-15T11:10:53.826Z,6.97
2023-04-15T11:13:29.263Z,6.57
2023-04-15T11:16:02.426Z,6.87
2023-04-15T11:18:35.241Z,8.07
2023-04-15T11:21:05.694Z,7.43
2023-04-15T11:23:46.758Z,8.80
2023-04-15T11:26:15.400Z,7.83
2023-04-15T11:28:44.898Z,8.00
2023-04-15T11:31:13.946Z,8.80
2023-04-15T11:33:56.443Z,8.23
2023-04-15T11:36:27.077Z,8.33
2023-04-15T11:38:54.730Z,10.20
2023-04-15T11:41:23.256Z,10.10
2023-04-15T11:43:51.311Z,8.97
2023-04-15T11:46:19.232Z,7.10
2023-04-15T11:48:48.930Z,8.10
2023-04-15T11:51:16.672Z,7.30
2023-04-15T11:53:46.016Z,8.63
2023-04-15T11:56:19.249Z,8.43
2023-04-15T11:58:47.217Z,8.70
2023-04-15T12:01:14.892Z,7.43
2023-04-15T12:03:44.213Z,7.43
2023-04-15T12:06:19.397Z,7.80
2023-04-15T12:09:02.583Z,9.47
2023-04-15T12:11:38.044Z,9.00
2023-04-15T12:14:11.316Z,8.50
2023-04-15T12:16:49.202Z,7.72
2023-04-15T12:19:20.321Z,7.83
2023-04-15T12:21:50.252Z,8.83
2023-04-15T12:24:21.937Z,7.30
2023-04-15T12:26:51.105Z,7.30
2023-04-15T12:29:19.243Z,9.73
2023-04-15T12:31:51.655Z,9.17
2023-04-15T12:34:26.732Z,9.27
2023-04-15T12:36:56.686Z,10.83
2023-04-15T12:39:25.298Z,9.80
2023-04-15T12:41:53.038Z,11.90
2023-04-15T12:44:21.783Z,8.63
2023-04-15T12:46:49.404Z,8.03
2023-04-15T12:49:19.911Z,8.40
2023-04-15T12:51:48.218Z,6.60
2023-04-15T12:54:17.430Z,8.73
2023-04-15T12:56:46.075Z,7.03
2023-04-15T12:59:13.920Z,7.70
2023-04-15T13:01:42.379Z,6.57
2023-04-15T13:04:10.099Z,7.03
2023-04-15T13:06:38.410Z,6.75
2023-04-15T13:09:06.658Z,6.43
2023-04-15T13:11:36.535Z,9.70
2023-04-15T13:14:06.031Z,6.90
2023-04-15T13:16:34.711Z,6.77
2023-04-15T13:19:03.544Z,7.63
2023-04-15T13:21:32.150Z,6.70
2023-04-15T13:24:00.569Z,7.60
2023-04-15T13:26:28.209Z,7.27
2023-04-15T13:28:57.202Z,7.37
2023-04-15T13:31:24.866Z,6.77
2023-04-15T13:33:52.468Z,7.50
2023-04-15T13:36:20.506Z,6.03
2023-04-15T13:38:50.438Z,7.40
2023-04-15T13:41:19.934Z,6.50
2023-04-15T13:43:47.496Z,7.57
2023-04-15T13:46:16.605Z,9.23
2023-04-15T13:48:44.276Z,8.53
2023-04-15T13:51:11.860Z,6.50
2023-04-15T13:53:39.894Z,7.50
2023-04-15T13:56:08.423Z,6.20
2023-04-15T13:58:36.925Z,9.60
2023-04-15T14:01:06.282Z,8.00
2023-04-15T14:03:36.798Z,6.63
2023-04-15T14:06:05.725Z,6.50
2023-04-15T14:08:33.885Z,11.53
2023-04-15T14:11:01.728Z,8.97
2023-04-15T14:13:29.413Z,7.43
2023-04-15T14:15:57.870Z,6.73
2023-04-15T14:18:25.742Z,6.77
2023-04-15T14:20:54.831Z,7.40
2023-04-15T14:23:22.414Z,6.70
2023-04-15T14:25:51.802Z,6.73
2023-04-15T14:28:19.443Z,7.80
2023-04-15T14:30:47.170Z,6.15
2023-04-15T14:33:14.914Z,9.97
2023-04-15T14:35:42.629Z,7.73
2023-04-15T14:38:11.740Z,8.03
2023-04-15T14:40:39.526Z,7.10
2023-04-15T14:43:07.118Z,11.03
2023-04-15T14:45:34.943Z,10.93
2023-04-15T14:48:02.688Z,9.27
2023-04-15T14:50:30.541Z,6.90
2023-04-15T14:52:58.145Z,10.60
2023-04-15T14:55:27.151Z,8.43
2023-04-15T14:57:54.749Z,9.90
2023-04-15T15:00:22.361Z,10.05
2023-04-15T15:02:50.103Z,8.20
2023-04-15T15:05:17.961Z,19.33
2023-04-15T15:07:45.738Z,9.07
2023-04-15T15:10:13.329Z,8.35
2023-04-15T15:12:42.327Z,10.20
2023-04-15T15:15:25.157Z,8.60
2023-04-15T15:17:56.273Z,9.27
2023-04-15T15:20:24.435Z,11.03
2023-04-15T15:22:52.279Z,6.73
2023-04-15T15:25:19.862Z,8.53
2023-04-15T15:27:49.058Z,7.82
2023-04-15T15:30:16.816Z,7.60
2023-04-15T15:32:44.861Z,7.70
2023-04-15T15:35:12.534Z,9.53
2023-04-15T15:37:40.190Z,10.60
2023-04-15T15:40:09.137Z,10.63
2023-04-15T15:42:36.849Z,8.30
2023-04-15T15:45:06.534Z,9.93
2023-04-15T15:47:34.260Z,9.25
2023-04-15T15:50:04.248Z,10.73
2023-04-15T15:52:33.228Z,12.48
2023-04-15T15:55:01.818Z,6.50
2023-04-15T15:57:29.433Z,7.85
2023-04-15T16:00:10.247Z,6.60
2023-04-15T16:05:12.399Z,7.35
2023-04-15T16:07:40.000Z,6.00
2023-04-15T16:10:08.648Z,8.03
2023-04-15T16:12:36.299Z,8.98
2023-04-15T16:15:04.218Z,9.55
2023-04-15T16:17:31.879Z,7.63
2023-04-15T16:20:04.202Z,13.52
2023-04-15T16:22:32.185Z,6.90
2023-04-15T16:24:59.987Z,7.20
2023-04-15T16:27:27.758Z,8.95
2023-04-15T16:29:55.328Z,7.68
2023-04-15T16:32:23.046Z,8.63
2023-04-15T16:34:50.834Z,8.02
2023-04-15T16:37:20.740Z,5.53
2023-04-15T16:39:48.347Z,10.07
2023-04-15T16:42:16.218Z,6.78
2023-04-15T16:44:43.805Z,6.18
2023-04-15T16:47:11.993Z,8.80
2023-04-15T16:49:39.608Z,6.93
2023-04-15T16:52:07.239Z,8.50
2023-04-15T16:54:40.478Z,6.57
2023-04-15T16:57:08.296Z,10.25
2023-04-15T16:59:35.931Z,8.93
2023-04-15T17:02:03.707Z,11.75
2023-04-15T17:04:31.744Z,11.07
2023-04-15T17:06:59.371Z,9.00
2023-04-15T17:09:26.953Z,9.73
2023-04-15T17:11:55.997Z,11.85
2023-04-15T17:14:23.576Z,16.23
2023-04-15T17:16:51.130Z,11.45
2023-04-15T17:19:18.740Z,11.30
2023-04-15T17:21:46.422Z,11.00
2023-04-15T17:24:14.056Z,14.75
2023-04-15T17:26:41.706Z,10.52
2023-04-15T17:29:11.128Z,15.25
2023-04-15T17:31:38.798Z,10.18
2023-04-15T17:34:10.646Z,7.72
2023-04-15T17:36:39.409Z,12.00
2023-04-15T17:39:07.233Z,8.85
2023-04-15T17:41:35.145Z,11.45
2023-04-15T17:44:02.910Z,12.70
2023-04-15T17:46:32.160Z,8.90
2023-04-15T17:48:59.868Z,9.52
2023-04-15T17:51:27.987Z,13.68
2023-04-15T17:54:07.998Z,10.23
2023-04-15T17:56:35.780Z,9.38
2023-04-15T17:59:03.545Z,15.07
2023-04-15T18:01:32.590Z,15.63
2023-04-15T18:04:00.496Z,10.27
2023-04-15T18:06:28.334Z,9.13
2023-04-15T18:08:56.110Z,13.60
2023-04-15T18:11:23.730Z,12.60
2023-04-15T18:13:51.305Z,18.02
2023-04-15T18:16:20.285Z,15.05
2023-04-15T18:18:49.244Z,13.98
2023-04-15T18:21:16.848Z,13.95
2023-04-15T18:23:44.448Z,13.65
2023-04-15T18:26:12.105Z,11.60
2023-04-15T18:28:39.843Z,10.90
2023-04-15T18:31:07.509Z,11.63
2023-04-15T18:33:35.864Z,11.32
2023-04-15T18:36:05.354Z,9.40
2023-04-15T18:38:32.966Z,13.98
2023-04-15T18:41:00.600Z,11.18
2023-04-15T18:43:28.189Z,10.18
2023-04-15T18:45:55.910Z,11.77
2023-04-15T18:48:23.585Z,13.98
2023-04-15T18:50:53.897Z,11.23
2023-04-15T18:53:23.397Z,12.00
2023-04-15T18:55:51.016Z,8.13
2023-04-15T18:58:18.650Z,16.60
2023-04-15T19:00:46.298Z,11.00
2023-04-15T19:03:14.024Z,18.42
2023-04-15T19:05:41.714Z,12.57
2023-04-15T19:08:09.362Z,12.90
2023-04-15T19:10:38.702Z,11.32
2023-04-15T19:13:06.410Z,15.90
2023-04-15T19:15:33.995Z,13.13
2023-04-15T19:18:01.660Z,12.48
2023-04-15T19:20:29.357Z,13.02
2023-04-15T19:22:57.045Z,11.13
2023-04-15T19:25:24.791Z,17.98
2023-04-15T19:27:53.731Z,14.48
2023-04-15T19:30:21.800Z,13.10
2023-04-15T19:32:49.423Z,11.70
2023-04-15T19:35:17.110Z,13.80
2023-04-15T19:37:44.686Z,14.77
2023-04-15T19:40:13.866Z,8.90
2023-04-15T19:42:41.406Z,9.13
2023-04-15T19:45:11.054Z,11.82
2023-04-15T19:47:38.707Z,9.57
2023-04-15T19:50:07.820Z,12.60
2023-04-15T19:52:35.411Z,13.20
2023-04-15T19:55:03.582Z,13.88
2023-04-15T19:57:31.383Z,19.35
2023-04-15T19:59:58.935Z,18.27
2023-04-15T20:02:29.963Z,16.98
2023-04-15T20:04:57.596Z,17.08
2023-04-15T20:07:25.235Z,16.98
2023-04-15T20:09:52.846Z,14.98
2023-04-15T20:12:51.205Z,16.95
2023-04-15T20:15:09.073Z,14.32
2023-04-15T20:17:38.411Z,17.70
2023-04-15T20:20:07.279Z,14.95
2023-04-15T20:22:35.280Z,24.00
2023-04-15T20:25:04.079Z,19.60
2023-04-15T20:27:31.730Z,20.15
2023-04-15T20:29:59.329Z,28.35
2023-04-15T20:32:28.078Z,26.20
2023-04-15T20:34:57.164Z,26.60
2023-04-15T20:37:24.798Z,30.25
2023-04-15T20:39:52.608Z,27.20
2023-04-15T20:42:20.700Z,26.63
2023-04-15T20:44:48.265Z,29.45
2023-04-15T20:47:16.031Z,26.40
2023-04-15T20:49:43.706Z,33.88
2023-04-15T20:52:12.632Z,30.63
2023-04-15T20:54:40.219Z,32.58
2023-04-15T20:57:07.966Z,28.35
2023-04-15T20:59:35.875Z,35.20
2023-04-15T21:02:03.680Z,35.80
2023-04-15T21:04:31.425Z,36.72
2023-04-15T21:06:59.011Z,27.75
2023-04-15T21:09:27.950Z,30.05
2023-04-15T21:14:26.592Z,24.08
2023-04-15T21:16:54.221Z,25.50
2023-04-15T21:19:21.768Z,24.33
2023-04-15T21:21:49.311Z,30.23
2023-04-15T21:24:16.844Z,25.30
2023-04-15T21:26:45.834Z,26.75
2023-04-15T21:29:13.707Z,21.55
2023-04-15T21:31:41.597Z,24.13
2023-04-15T21:34:09.280Z,23.10
2023-04-15T21:36:37.831Z,27.40
2023-04-15T21:39:06.390Z,23.67
2023-04-15T21:41:34.107Z,22.85
2023-04-15T21:44:03.026Z,24.60
2023-04-15T21:46:32.822Z,24.73
2023-04-15T21:49:02.867Z,28.25
2023-04-15T21:51:31.592Z,25.05
2023-04-15T21:53:59.282Z,28.23
2023-04-15T21:56:27.376Z,32.55
2023-04-15T21:58:57.775Z,22.20
2023-04-15T22:01:27.172Z,29.60
2023-04-15T22:03:55.126Z,23.25
2023-04-15T22:06:22.857Z,24.40
2023-04-15T22:08:56.968Z,24.42
2023-04-15T22:11:27.946Z,25.50
2023-04-15T22:13:56.569Z,19.98
2023-04-15T22:16:24.222Z,27.17
2023-04-15T22:18:53.422Z,24.85
2023-04-15T22:21:21.123Z,28.52
2023-04-15T22:23:49.702Z,29.80
2023-04-15T22:26:17.380Z,39.47
2023-04-15T22:28:44.977Z,24.58
2023-04-15T22:31:13.600Z,32.33
2023-04-15T22:33:41.214Z,36.35
2023-04-15T22:36:10.138Z,40.33
2023-04-15T22:38:37.772Z,34.88
2023-04-15T22:41:05.461Z,41.35
2023-04-15T22:43:33.026Z,35.83
2023-04-15T22:46:01.062Z,41.70
2023-04-15T22:48:28.697Z,43.40
2023-04-15T22:50:56.354Z,43.10
2023-04-15T22:53:25.282Z,39.58
2023-04-15T22:55:53.890Z,54.08
2023-04-15T22:58:21.469Z,46.28
2023-04-15T23:00:49.433Z,58.40
2023-04-15T23:03:17.165Z,52.22
2023-04-15T23:05:45.644Z,50.85
2023-04-15T23:08:13.245Z,65.70
2023-04-15T23:10:44.466Z,47.17
2023-04-15T23:13:11.999Z,51.13
2023-04-15T23:15:39.681Z,45.28
2023-04-15T23:18:07.401Z,44.72
2023-04-15T23:20:35.081Z,40.42
2023-04-15T23:23:02.716Z,48.85
2023-04-15T23:25:30.383Z,46.25
2023-04-15T23:27:59.314Z,47.75
2023-04-15T23:30:26.880Z,55.15
2023-04-15T23:32:54.979Z,38.55
2023-04-15T23:35:22.629Z,53.58
2023-04-15T23:37:50.262Z,48.33
2023-04-15T23:40:17.897Z,51.70
2023-04-15T23:42:45.691Z,44.33
2023-04-15T23:45:14.681Z,44.53
2023-04-15T23:47:42.512Z,49.83
2023-04-15T23:50:11.118Z,48.30
2023-04-15T23:52:38.745Z,48.13
2023-04-15T23:55:07.150Z,45.30
2023-04-15T23:57:34.730Z,48.85
